createdAt,value
2023-03-19T00:01:46.895Z,18.73
2023-03-19T00:06:04.999Z,18.08
2023-03-19T00:10:24.065Z,17.63
2023-03-19T00:14:44.215Z,13.38
2023-03-19T00:19:02.448Z,21.60
2023-03-19T00:23:19.855Z,17.77
2023-03-19T00:27:39.945Z,18.67
2023-03-19T00:31:59.995Z,17.25
2023-03-19T00:36:21.763Z,18.15
2023-03-19T00:40:41.251Z,17.33
2023-03-19T00:45:00.992Z,18.73
2023-03-19T00:49:20.918Z,18.02
2023-03-19T00:53:39.958Z,14.10
2023-03-19T00:57:59.365Z,19.65
2023-03-19T01:02:18.926Z,22.33
2023-03-19T01:06:38.482Z,20.03
2023-03-19T01:10:56.667Z,24.00
2023-03-19T01:15:17.019Z,23.42
2023-03-19T01:19:37.729Z,20.25
2023-03-19T01:23:57.172Z,21.80
2023-03-19T01:28:18.106Z,22.83
2023-03-19T01:32:36.291Z,22.30
2023-03-19T01:37:14.546Z,17.13
2023-03-19T01:41:33.835Z,17.40
2023-03-19T01:46:20.893Z,14.80
2023-03-19T01:51:01.131Z,14.80
2023-03-19T01:55:37.270Z,16.45
2023-03-19T02:00:18.806Z,18.77
2023-03-19T02:04:37.893Z,13.13
2023-03-19T02:08:58.782Z,15.37
2023-03-19T02:13:20.651Z,17.25
2023-03-19T02:17:40.541Z,18.85
2023-03-19T02:21:58.513Z,20.67
2023-03-19T02:26:19.104Z,15.38
2023-03-19T02:30:41.317Z,15.75
2023-03-19T02:35:02.558Z,12.67
2023-03-19T02:39:26.301Z,9.63
2023-03-19T02:43:46.625Z,14.68
2023-03-19T02:48:06.870Z,11.65
2023-03-19T02:52:24.096Z,16.20
2023-03-19T02:56:42.566Z,18.88
2023-03-19T03:01:01.822Z,17.27
2023-03-19T03:05:21.534Z,20.60
2023-03-19T03:09:39.796Z,20.30
2023-03-19T03:13:57.745Z,20.25
2023-03-19T03:18:17.452Z,14.93
2023-03-19T03:22:36.808Z,14.73
2023-03-19T03:26:54.785Z,15.25
2023-03-19T03:31:13.714Z,13.32
2023-03-19T03:35:49.867Z,15.87
2023-03-19T03:40:14.343Z,18.50
2023-03-19T03:44:34.734Z,16.08
2023-03-19T03:48:55.659Z,14.07
2023-03-19T03:53:19.089Z,16.90
2023-03-19T03:57:39.777Z,15.90
2023-03-19T04:01:59.537Z,18.60
2023-03-19T04:06:22.038Z,14.30
2023-03-19T04:10:53.339Z,16.35
2023-03-19T04:15:15.558Z,13.68
2023-03-19T04:19:39.538Z,16.03
2023-03-19T04:23:57.561Z,14.77
2023-03-19T04:28:21.390Z,19.98
2023-03-19T04:32:44.479Z,15.43
2023-03-19T04:37:03.568Z,18.38
2023-03-19T04:41:27.783Z,14.95
2023-03-19T04:46:14.515Z,17.53
2023-03-19T04:50:35.148Z,19.60
2023-03-19T04:54:57.011Z,18.02
2023-03-19T04:59:18.366Z,17.42
2023-03-19T05:03:42.341Z,17.23
2023-03-19T05:08:02.217Z,19.83
2023-03-19T05:12:23.343Z,20.35
2023-03-19T05:16:44.992Z,18.50
2023-03-19T05:21:07.483Z,21.08
2023-03-19T05:25:27.124Z,20.70
2023-03-19T05:29:56.621Z,17.97
2023-03-19T05:34:33.673Z,16.38
2023-03-19T05:38:52.994Z,16.48
2023-03-19T05:43:20.091Z,17.55
2023-03-19T05:47:40.430Z,19.07
2023-03-19T05:52:03.702Z,14.52
2023-03-19T05:56:24.492Z,16.80
2023-03-19T06:00:58.383Z,19.57
2023-03-19T06:05:17.990Z,19.95
2023-03-19T06:09:41.190Z,18.52
2023-03-19T06:14:02.019Z,19.17
2023-03-19T06:18:29.560Z,19.45
2023-03-19T06:22:50.164Z,16.13
2023-03-19T06:27:09.734Z,18.65
2023-03-19T06:31:39.502Z,18.63
2023-03-19T06:36:09.833Z,18.45
2023-03-19T06:40:28.969Z,19.25
2023-03-19T06:44:48.572Z,16.33
2023-03-19T06:49:09.675Z,18.92
2023-03-19T06:53:27.626Z,18.67
2023-03-19T06:57:48.911Z,16.17
2023-03-19T07:02:08.962Z,16.52
2023-03-19T07:06:30.231Z,16.27
2023-03-19T07:10:51.031Z,16.25
2023-03-19T07:15:11.010Z,15.47
2023-03-19T07:19:28.688Z,15.60
2023-03-19T07:23:48.295Z,15.50
2023-03-19T07:28:07.563Z,13.97
2023-03-19T07:32:26.542Z,15.20
2023-03-19T07:36:46.126Z,14.20
2023-03-19T07:41:07.001Z,14.80
2023-03-19T07:45:26.370Z,14.90
2023-03-19T07:49:44.024Z,15.95
2023-03-19T07:54:01.896Z,15.07
2023-03-19T07:58:21.601Z,14.37
2023-03-19T08:02:42.838Z,16.23
2023-03-19T08:07:02.219Z,15.65
2023-03-19T08:11:20.335Z,14.47
2023-03-19T08:15:40.032Z,15.02
2023-03-19T08:19:59.766Z,13.30
2023-03-19T08:24:17.766Z,16.50
2023-03-19T08:28:35.698Z,14.77
2023-03-19T08:32:55.018Z,13.13
2023-03-19T08:37:14.936Z,12.00
2023-03-19T08:41:32.953Z,13.67
2023-03-19T08:45:52.476Z,13.85
2023-03-19T08:50:13.813Z,11.45
2023-03-19T08:54:33.766Z,13.53
2023-03-19T08:58:51.423Z,12.93
2023-03-19T09:03:09.412Z,12.68
2023-03-19T09:07:29.110Z,11.60
2023-03-19T09:11:49.308Z,11.77
2023-03-19T09:16:07.145Z,15.15
2023-03-19T09:20:24.816Z,15.02
2023-03-19T09:24:44.213Z,11.63
2023-03-19T09:29:04.987Z,13.35
2023-03-19T09:33:24.892Z,13.68
2023-03-19T09:37:43.281Z,13.27
2023-03-19T09:42:16.333Z,14.50
2023-03-19T09:46:43.460Z,13.65
2023-03-19T09:51:06.763Z,13.03
2023-03-19T09:55:37.660Z,14.27
2023-03-19T09:59:58.029Z,11.55
2023-03-19T10:04:41.654Z,15.13
2023-03-19T10:09:22.944Z,14.30
2023-03-19T10:13:55.590Z,14.52
2023-03-19T10:18:19.821Z,14.18
2023-03-19T10:22:40.188Z,13.27
2023-03-19T10:27:03.016Z,13.52
2023-03-19T10:31:31.064Z,13.77
2023-03-19T10:35:58.493Z,12.63
2023-03-19T10:40:23.334Z,13.57
2023-03-19T10:44:48.472Z,15.68
2023-03-19T10:49:05.587Z,11.23
2023-03-19T10:53:33.153Z,12.57
2023-03-19T10:57:52.863Z,12.15
2023-03-19T11:02:19.364Z,11.80
2023-03-19T11:06:40.250Z,11.20
2023-03-19T11:10:58.593Z,10.32
2023-03-19T11:15:22.090Z,11.82
2023-03-19T11:19:42.416Z,9.93
2023-03-19T11:24:03.078Z,11.85
2023-03-19T11:28:26.859Z,8.77
2023-03-19T11:33:09.713Z,10.73
2023-03-19T11:37:34.886Z,8.90
2023-03-19T11:42:21.171Z,10.10
2023-03-19T11:46:46.401Z,11.20
2023-03-19T11:51:12.383Z,9.73
2023-03-19T11:55:36.448Z,8.90
2023-03-19T12:00:13.724Z,9.13
2023-03-19T12:04:50.864Z,9.10
2023-03-19T12:09:17.722Z,8.55
2023-03-19T12:13:53.264Z,8.73
2023-03-19T12:18:23.784Z,10.73
2023-03-19T12:22:56.510Z,8.33
2023-03-19T12:27:27.492Z,8.10
2023-03-19T12:31:59.723Z,10.35
2023-03-19T12:36:25.080Z,10.17
2023-03-19T12:40:50.395Z,8.73
2023-03-19T12:45:25.315Z,8.00
2023-03-19T12:49:48.692Z,9.07
2023-03-19T12:54:14.088Z,8.65
2023-03-19T12:58:40.314Z,6.90
2023-03-19T13:03:06.596Z,7.47
2023-03-19T13:07:34.244Z,7.77
2023-03-19T13:12:00.004Z,6.90
2023-03-19T13:16:34.526Z,5.63
2023-03-19T13:21:11.657Z,43.87
2023-03-19T13:25:35.526Z,33.33
2023-03-19T13:30:04.067Z,107.47
2023-03-19T13:34:35.366Z,73.37
2023-03-19T13:38:53.183Z,6.90
2023-03-19T13:43:43.052Z,7.28
2023-03-19T13:48:25.694Z,6.68
2023-03-19T13:52:51.442Z,6.23
2023-03-19T13:57:22.644Z,8.55
2023-03-19T14:01:44.576Z,8.98
2023-03-19T14:06:04.261Z,6.83
2023-03-19T14:10:27.185Z,7.25
2023-03-19T14:14:50.971Z,7.55
2023-03-19T14:19:13.436Z,6.37
2023-03-19T14:23:41.196Z,8.77
2023-03-19T14:28:11.392Z,6.85
2023-03-19T14:32:35.570Z,7.80
2023-03-19T14:36:59.986Z,22.30
2023-03-19T14:41:20.771Z,104.13
2023-03-19T14:45:51.084Z,8.55
2023-03-19T14:50:41.941Z,7.83
2023-03-19T14:55:02.844Z,7.63
2023-03-19T14:59:21.872Z,7.35
2023-03-19T15:03:41.949Z,6.70
2023-03-19T15:08:04.763Z,118.43
2023-03-19T15:12:43.878Z,292.88
2023-03-19T15:17:07.754Z,412.00
2023-03-19T15:21:27.856Z,441.03
2023-03-19T15:25:48.268Z,708.88
2023-03-19T15:30:22.513Z,270.60
2023-03-19T15:34:42.627Z,291.07
2023-03-19T15:39:04.202Z,7.35
2023-03-19T15:43:24.851Z,9.00
2023-03-19T15:47:48.020Z,22.33
2023-03-19T15:52:09.613Z,57.25
2023-03-19T15:56:30.013Z,337.27
2023-03-19T16:00:48.603Z,261.50
2023-03-19T16:05:21.473Z,432.67
2023-03-19T16:09:39.781Z,701.80
2023-03-19T16:14:00.922Z,930.83
2023-03-19T16:18:26.487Z,563.77
2023-03-19T16:22:58.702Z,7.45
2023-03-19T16:27:19.200Z,8.40
2023-03-19T16:31:46.403Z,8.40
2023-03-19T16:36:05.656Z,8.43
2023-03-19T16:40:43.221Z,7.30
2023-03-19T16:45:18.141Z,8.75
2023-03-19T16:49:37.548Z,8.57
2023-03-19T16:53:57.229Z,8.50
2023-03-19T16:58:17.881Z,8.02
2023-03-19T17:02:36.259Z,7.50
2023-03-19T17:06:55.802Z,8.13
2023-03-19T17:11:25.082Z,7.60
2023-03-19T17:15:43.564Z,9.67
2023-03-19T17:20:00.956Z,9.43
2023-03-19T17:24:25.939Z,21.45
2023-03-19T17:28:43.123Z,50.03
2023-03-19T17:33:01.319Z,7.10
2023-03-19T17:37:19.226Z,12.57
2023-03-19T17:41:38.724Z,33.10
2023-03-19T17:45:58.419Z,29.37
2023-03-19T17:50:20.032Z,60.42
2023-03-19T17:54:37.656Z,82.72
2023-03-19T17:58:57.138Z,180.43
2023-03-19T18:03:19.337Z,126.35
2023-03-19T18:07:37.906Z,249.55
2023-03-19T18:11:56.938Z,86.38
2023-03-19T18:16:22.777Z,8.17
2023-03-19T18:20:42.592Z,7.95
2023-03-19T18:25:02.818Z,8.38
2023-03-19T18:29:20.679Z,143.90
2023-03-19T18:33:40.676Z,327.80
2023-03-19T18:38:00.642Z,325.58
2023-03-19T18:42:18.373Z,175.43
2023-03-19T18:46:38.408Z,230.65
2023-03-19T18:50:58.776Z,138.15
2023-03-19T18:55:18.798Z,180.45
2023-03-19T18:59:36.397Z,425.13
2023-03-19T19:03:54.310Z,524.15
2023-03-19T19:08:18.736Z,430.15
2023-03-19T19:12:39.330Z,547.30
2023-03-19T19:16:57.768Z,525.22
2023-03-19T19:21:16.106Z,534.40
2023-03-19T19:25:34.975Z,580.37
2023-03-19T19:29:55.045Z,541.42
2023-03-19T19:34:15.190Z,570.58
2023-03-19T19:38:34.043Z,408.95
2023-03-19T19:42:54.528Z,486.50
2023-03-19T19:47:15.823Z,578.53
2023-03-19T19:51:34.172Z,543.65
2023-03-19T19:55:52.430Z,571.37
2023-03-19T20:00:22.280Z,623.35
2023-03-19T20:04:40.673Z,709.03
2023-03-19T20:08:58.694Z,661.70
2023-03-19T20:13:24.998Z,716.83
2023-03-19T20:17:45.717Z,766.33
2023-03-19T20:22:05.173Z,710.28
2023-03-19T20:26:25.492Z,661.40
2023-03-19T20:30:44.401Z,711.40
2023-03-19T20:35:05.137Z,492.10
2023-03-19T20:39:23.499Z,514.07
2023-03-19T20:43:41.540Z,696.03
2023-03-19T20:47:59.661Z,754.72
2023-03-19T20:52:19.235Z,810.67
2023-03-19T20:56:46.334Z,823.50
2023-03-19T21:01:06.746Z,911.33
2023-03-19T21:05:25.663Z,983.78
2023-03-19T21:09:46.614Z,994.77
2023-03-19T21:14:07.970Z,946.17
2023-03-19T21:18:27.660Z,931.90
2023-03-19T21:22:48.235Z,26.33
2023-03-19T21:27:09.303Z,12.52
2023-03-19T21:31:28.153Z,227.23
2023-03-19T21:35:45.962Z,799.20
2023-03-19T21:40:04.133Z,40.60
2023-03-19T21:44:24.534Z,327.17
2023-03-19T21:48:43.999Z,231.27
2023-03-19T21:53:01.858Z,9.97
2023-03-19T21:57:19.511Z,285.85
2023-03-19T22:01:38.635Z,529.97
2023-03-19T22:05:58.698Z,484.97
2023-03-19T22:10:17.686Z,464.00
2023-03-19T22:14:38.669Z,576.15
2023-03-19T22:18:57.716Z,539.40
2023-03-19T22:23:16.836Z,547.97
2023-03-19T22:27:34.856Z,562.03
2023-03-19T22:31:54.243Z,554.67
2023-03-19T22:36:16.088Z,568.13
2023-03-19T22:40:35.759Z,565.70
2023-03-19T22:44:54.603Z,548.53
2023-03-19T22:49:16.594Z,555.47
2023-03-19T22:53:38.458Z,573.80
2023-03-19T22:57:56.646Z,607.22
2023-03-19T23:02:16.184Z,607.03
2023-03-19T23:06:35.885Z,672.17
2023-03-19T23:10:55.772Z,634.08
2023-03-19T23:15:15.293Z,612.03
2023-03-19T23:19:34.493Z,639.60
2023-03-19T23:23:54.684Z,588.92
2023-03-19T23:28:20.513Z,619.47
2023-03-19T23:32:39.598Z,764.07
2023-03-19T23:36:58.068Z,715.92
2023-03-19T23:41:23.881Z,666.15
2023-03-19T23:45:45.529Z,648.47
2023-03-19T23:50:04.069Z,657.47
2023-03-19T23:54:29.766Z,634.85
2023-03-19T23:58:51.013Z,639.65
